Pagrindinis puslapis
METAR-TAF:

METAR-TAF

Oro uostai :

Puerto Peñasco, Meksika

platuma: 31-21-07N, ilguma: 113-18-20W, Aukštis: 22 m

Dabartinis oras

Ataskaita buvo paskelbta 17 valandos ir 4 minutes, ne 20:49 UTC
Vėjas 8 kt iš Šiaurės/Šiaurės Vakarų
Temperatūra 32°C
Drėgmė 9%
Slėgis 1013 hPa
Matomumas: 16.1 km
Mažai debesys ne aukštis 20000 ft

METAR: MMPE 162049Z 33008KT 10SM FEW200 32/M05 A2990 RMK 8/008 RTS

Laikas: 06:53 (13:53 UTC)


TAF: trūkstamas

Orai ataskaitas ir orų prognozės (METAR, TAF).

turimą stotys yra geltonos ir raudonos taškus žemėlapyje.

Perkelti pele per norėdami pamatyti stoties vardą.

Tada spustelėkite, norėdami matyti oro stebėjimo ir prognozės.

Norėdami pakeisti žemėlapį: spustelėkite ant žalios mygtukų su juodo kryžiaus žemyn,; žalią mygtuką su brūkšneliu, jei norite nutolinti; arba žalių rodyklių gretimoms žemėlapius.


METAR-TAF: